Time;durP1;ratioP1;P1;durP2;ratioP2;P2;SDS_P1;SDS_P2;PMS_P1;PMS_P2;Temp;Humidity;BMP_temperature;BMP_pressure;BME280_temperature;BME280_humidity;BME280_pressure;Samples;Min_cycle;Max_cycle;Signal;HPM_P1;HPM_P2
2022/09/08 00:01:39;;;;;;;23.33;13.23;;;;;;;17.26;90.55;95022.44;5070340;28;20205;-80
2022/09/08 00:04:07;;;;;;;29.27;15.53;;;;;;;17.24;91.27;95021.13;5063977;28;20221;-80
2022/09/08 00:06:34;;;;;;;39.90;19.07;;;;;;;17.35;90.85;95033.31;5069942;28;20240;-80
2022/09/08 00:09:01;;;;;;;49.50;22.10;;;;;;;17.34;90.93;95031.72;5070712;28;20209;-80
2022/09/08 00:11:30;;;;;;;41.63;22.60;;;;;;;17.38;90.91;95032.81;5070560;28;20302;-81
2022/09/08 00:13:59;;;;;;;44.87;21.60;;;;;;;17.38;91.18;95032.81;5070602;28;20675;-81
2022/09/08 00:16:26;;;;;;;40.20;19.80;;;;;;;17.39;90.92;95029.13;5070086;28;20260;-79
2022/09/08 00:18:52;;;;;;;32.97;18.50;;;;;;;17.38;91.09;95032.81;5070374;28;20201;-79
2022/09/08 00:21:22;;;;;;;34.73;16.43;;;;;;;17.41;90.51;95034.94;5069804;28;20243;-80
2022/09/08 00:23:49;;;;;;;28.10;13.53;;;;;;;17.34;90.83;95034.34;5070880;28;20236;-80
2022/09/08 00:26:17;;;;;;;19.60;12.50;;;;;;;17.24;91.41;95029.81;5070844;28;20220;-79
2022/09/08 00:28:44;;;;;;;26.23;11.83;;;;;;;17.14;91.16;95042.06;5070353;28;20213;-81
2022/09/08 00:31:11;;;;;;;18.43;11.83;;;;;;;17.01;91.39;95030.91;5071328;28;20198;-80
2022/09/08 00:33:38;;;;;;;19.43;11.87;;;;;;;17.00;92.02;95029.31;5075333;28;20231;-79
2022/09/08 00:36:06;;;;;;;26.03;12.70;;;;;;;17.09;92.21;95034.91;5074223;28;20197;-79
2022/09/08 00:38:35;;;;;;;27.67;12.70;;;;;;;17.09;92.23;95029.66;5074033;28;20217;-79
2022/09/08 00:41:02;;;;;;;25.00;13.73;;;;;;;17.11;92.10;95037.31;5074785;28;20713;-80
2022/09/08 00:43:34;;;;;;;25.27;14.37;;;;;;;17.11;92.50;95029.44;5073945;28;20224;-80
2022/09/08 00:46:07;;;;;;;24.57;13.80;;;;;;;17.17;92.13;95033.69;5074079;28;20589;-80
2022/09/08 00:48:38;;;;;;;18.43;12.50;;;;;;;17.16;91.99;95042.59;5073654;28;20243;-79
2022/09/08 00:51:06;;;;;;;28.23;13.70;;;;;;;17.17;92.29;95034.44;5073034;28;20753;-79
2022/09/08 00:53:38;;;;;;;23.17;13.93;;;;;;;17.14;91.94;95027.09;5073159;28;20197;-80
2022/09/08 00:56:06;;;;;;;32.37;16.43;;;;;;;17.12;92.33;95038.88;5072941;28;20240;-79
2022/09/08 00:58:34;;;;;;;26.53;17.17;;;;;;;17.08;92.30;95040.44;5073280;28;20205;-80
2022/09/08 01:01:02;;;;;;;33.40;20.03;;;;;;;17.07;92.26;95041.47;5073054;28;20213;-79
2022/09/08 01:03:31;;;;;;;38.27;21.33;;;;;;;16.99;92.09;95040.09;5072714;28;20212;-79
2022/09/08 01:06:07;;;;;;;30.60;17.37;;;;;;;16.94;92.19;95048.69;5071128;28;20637;-79
2022/09/08 01:14:17;;;;;;;28.13;16.73;;;;;;;16.74;94.42;95024.03;5069359;28;20201;-78
2022/09/08 01:16:48;;;;;;;28.73;16.57;;;;;;;16.69;94.97;95019.53;5065055;28;20719;-81
2022/09/08 01:19:20;;;;;;;24.23;16.30;;;;;;;16.68;95.05;95028.44;5066144;28;20243;-81
2022/09/08 01:22:05;;;;;;;26.10;16.77;;;;;;;16.81;94.31;95029.91;5072919;28;20228;-80
2022/09/08 01:24:46;;;;;;;22.97;15.10;;;;;;;16.83;93.65;95039.13;5072730;28;20278;-81
2022/09/08 01:27:21;;;;;;;29.63;15.77;;;;;;;16.82;93.50;95034.94;5073881;28;20252;-81
2022/09/08 01:29:49;;;;;;;28.53;15.17;;;;;;;16.80;93.90;95018.59;5072811;28;20208;-80
2022/09/08 01:32:16;;;;;;;23.90;15.87;;;;;;;16.81;94.16;95032.53;5072761;28;20695;-80
2022/09/08 01:34:45;;;;;;;25.73;14.93;;;;;;;16.76;94.28;95030.66;5069488;28;20262;-81
2022/09/08 01:37:13;;;;;;;24.13;15.00;;;;;;;16.72;94.72;95029.56;5073448;28;20205;-82
2022/09/08 01:39:40;;;;;;;23.30;14.47;;;;;;;16.77;94.54;95034.06;5073198;28;20919;-80
2022/09/08 01:42:07;;;;;;;24.20;14.27;;;;;;;16.80;93.91;95037.00;5073230;28;20201;-80
2022/09/08 01:44:35;;;;;;;22.43;12.90;;;;;;;16.73;93.26;95028.53;5071374;28;20221;-79
2022/09/08 01:47:02;;;;;;;25.17;13.50;;;;;;;16.74;93.31;95027.47;5072450;28;20235;-83
2022/09/08 01:49:29;;;;;;;20.60;11.80;;;;;;;16.68;92.95;95036.31;5072571;28;20197;-82
2022/09/08 01:51:56;;;;;;;19.60;12.30;;;;;;;16.66;91.97;95033.16;5072792;28;20193;-82
2022/09/08 01:54:22;;;;;;;21.23;12.17;;;;;;;16.63;92.60;95035.47;5072436;28;20212;-82
2022/09/08 01:56:49;;;;;;;18.60;12.47;;;;;;;16.55;92.64;95041.16;5068202;28;20208;-82
2022/09/08 01:59:16;;;;;;;15.63;11.80;;;;;;;16.59;93.22;95035.19;5072590;28;20595;-82
2022/09/08 02:01:44;;;;;;;21.43;11.80;;;;;;;16.60;92.99;95025.47;5072947;28;20205;-82
2022/09/08 02:04:12;;;;;;;17.63;12.27;;;;;;;16.57;93.25;95026.75;5072740;28;20228;-83
2022/09/08 02:06:39;;;;;;;19.17;12.73;;;;;;;16.57;93.68;95020.72;5068873;28;20224;-82
2022/09/08 02:09:06;;;;;;;20.90;11.93;;;;;;;16.50;94.04;95015.63;5073144;28;20208;-82
2022/09/08 02:11:33;;;;;;;21.00;12.77;;;;;;;16.42;94.35;95016.84;5073537;28;20588;-83
2022/09/08 02:14:00;;;;;;;17.50;11.23;;;;;;;16.46;93.81;95010.09;5073482;28;20240;-81
2022/09/08 02:16:28;;;;;;;18.10;9.03;;;;;;;16.48;93.35;95015.06;5067213;28;20233;-82
2022/09/08 02:18:56;;;;;;;15.73;8.77;;;;;;;16.44;93.07;95017.41;5062499;28;20205;-81
2022/09/08 02:21:25;;;;;;;15.43;8.97;;;;;;;16.41;92.96;95011.84;5073150;28;20204;-82
2022/09/08 02:23:54;;;;;;;16.37;10.07;;;;;;;16.42;93.58;95013.47;5071763;28;20251;-81
2022/09/08 02:26:23;;;;;;;15.00;9.70;;;;;;;16.40;93.70;95015.50;5071168;28;20213;-81
2022/09/08 02:28:53;;;;;;;14.03;9.63;;;;;;;16.42;93.53;95008.22;5071222;28;20206;-80
2022/09/08 02:31:20;;;;;;;14.27;9.30;;;;;;;16.36;93.23;95011.81;5070655;28;20225;-81
2022/09/08 02:33:47;;;;;;;13.27;8.80;;;;;;;16.31;92.38;95011.72;5071549;28;20197;-80
2022/09/08 02:36:15;;;;;;;13.77;9.33;;;;;;;16.27;92.61;95002.78;5071776;28;20577;-80
2022/09/08 02:38:42;;;;;;;18.73;10.70;;;;;;;16.16;93.28;95011.56;5071499;28;20198;-81
2022/09/08 02:41:10;;;;;;;18.90;11.07;;;;;;;16.09;93.34;95001.25;5072353;28;20263;-81
2022/09/08 02:43:37;;;;;;;18.47;10.63;;;;;;;16.08;93.14;95004.09;5065458;28;20287;-80
2022/09/08 02:46:06;;;;;;;19.03;10.60;;;;;;;16.07;93.16;95007.75;5072296;28;20221;-81
2022/09/08 02:48:33;;;;;;;19.27;10.53;;;;;;;16.06;92.96;95008.78;5072344;28;20205;-81
2022/09/08 02:51:00;;;;;;;21.93;11.23;;;;;;;16.02;93.13;95010.31;5071925;28;20197;-81
2022/09/08 02:53:29;;;;;;;17.37;10.10;;;;;;;15.95;93.11;95007.88;5071834;28;20296;-81
2022/09/08 02:55:57;;;;;;;12.13;7.83;;;;;;;15.86;93.31;95001.47;5069051;28;20735;-82
2022/09/08 02:58:24;;;;;;;20.10;8.73;;;;;;;15.82;93.78;95001.13;5067302;28;20572;-82
2022/09/08 03:00:51;;;;;;;11.17;8.00;;;;;;;15.77;95.26;94998.47;5072037;28;20694;-82
2022/09/08 03:03:19;;;;;;;16.60;9.20;;;;;;;15.80;95.61;94999.78;5061398;28;20201;-83
2022/09/08 03:05:46;;;;;;;14.33;8.93;;;;;;;15.93;95.67;95004.69;5064298;28;20221;-82
2022/09/08 03:08:13;;;;;;;14.93;9.03;;;;;;;16.00;95.17;95004.50;5071406;28;20231;-82
2022/09/08 03:10:42;;;;;;;13.30;9.30;;;;;;;16.01;95.17;95009.53;5071348;28;20205;-81
2022/09/08 03:13:09;;;;;;;14.57;9.37;;;;;;;15.92;94.98;95010.19;5070545;28;20209;-80
2022/09/08 03:15:37;;;;;;;15.07;9.37;;;;;;;15.92;95.79;95005.72;5070897;28;20233;-81
2022/09/08 03:18:04;;;;;;;15.03;8.50;;;;;;;15.90;95.10;95005.97;5071465;28;20698;-82
2022/09/08 03:20:32;;;;;;;11.60;8.40;;;;;;;15.88;95.33;95009.88;5071879;28;20201;-80
2022/09/08 03:23:00;;;;;;;14.50;8.37;;;;;;;15.79;95.33;95009.47;5071375;28;20201;-80
2022/09/08 03:25:29;;;;;;;15.10;9.50;;;;;;;15.83;95.02;95015.84;5071595;28;20224;-80
2022/09/08 03:27:57;;;;;;;17.27;8.87;;;;;;;15.82;95.07;95016.06;5068701;28;20202;-80
2022/09/08 03:30:24;;;;;;;14.90;8.13;;;;;;;15.73;95.04;95015.69;5067881;28;20653;-82
2022/09/08 03:32:51;;;;;;;15.03;8.23;;;;;;;15.73;94.68;95022.75;5062848;28;20201;-83
2022/09/08 03:35:19;;;;;;;17.77;8.63;;;;;;;15.65;96.08;95028.41;5065338;28;20284;-83
2022/09/08 03:37:47;;;;;;;11.80;8.33;;;;;;;15.64;96.94;95026.84;5070312;28;20202;-81
2022/09/08 03:40:16;;;;;;;18.23;8.27;;;;;;;15.73;96.63;95022.75;5064681;28;20250;-82
2022/09/08 03:42:44;;;;;;;17.60;8.73;;;;;;;15.79;95.41;95014.72;5071799;28;20201;-82
2022/09/08 03:45:16;;;;;;;17.37;8.43;;;;;;;15.77;95.27;95013.38;5071094;28;20251;-83
2022/09/08 03:47:43;;;;;;;16.40;9.00;;;;;;;15.82;95.33;95013.44;5070098;28;20208;-82
2022/09/08 03:50:11;;;;;;;16.30;8.50;;;;;;;15.75;95.37;95011.00;5067917;28;20270;-82
2022/09/08 03:52:38;;;;;;;16.37;8.83;;;;;;;15.78;95.20;95014.97;5064550;28;20284;-82
2022/09/08 03:55:06;;;;;;;13.37;8.17;;;;;;;15.73;95.20;95010.44;5060317;28;20197;-82
2022/09/08 03:57:32;;;;;;;15.60;9.00;;;;;;;15.77;94.61;95019.41;5071477;28;20228;-81
2022/09/08 04:00:00;;;;;;;14.40;8.40;;;;;;;15.72;94.80;95018.56;5071014;28;20212;-81
2022/09/08 04:02:31;;;;;;;17.67;8.83;;;;;;;15.69;94.43;95024.28;5063366;28;20201;-81
2022/09/08 04:04:59;;;;;;;13.53;8.60;;;;;;;15.57;94.19;95013.88;5069005;28;20271;-81
2022/09/08 04:07:30;;;;;;;15.13;8.40;;;;;;;15.67;94.80;95037.59;5064861;28;20578;-81
2022/09/08 04:10:01;;;;;;;12.37;8.90;;;;;;;15.64;94.78;95034.69;5074598;28;20193;-80
2022/09/08 04:12:28;;;;;;;15.47;8.77;;;;;;;15.63;94.92;95030.47;5074790;28;20204;-82
2022/09/08 04:14:55;;;;;;;13.93;8.33;;;;;;;15.58;94.47;95033.03;5074528;28;20205;-78
2022/09/08 04:17:23;;;;;;;15.63;8.97;;;;;;;15.60;94.46;95038.81;5074180;28;20240;-78
2022/09/08 04:19:52;;;;;;;18.00;8.97;;;;;;;15.54;94.88;95024.84;5074043;28;20205;-78
2022/09/08 04:22:21;;;;;;;20.63;8.90;;;;;;;15.57;94.85;95036.66;5068030;28;20197;-78
2022/09/08 04:24:48;;;;;;;17.93;9.53;;;;;;;15.59;94.13;95027.53;5073926;28;20395;-78
2022/09/08 04:27:16;;;;;;;13.57;8.20;;;;;;;15.60;94.68;95023.09;5074434;28;20345;-79
2022/09/08 04:29:43;;;;;;;17.57;10.40;;;;;;;15.66;93.89;95028.19;5073855;28;20217;-79
2022/09/08 04:32:10;;;;;;;17.47;9.73;;;;;;;15.65;94.43;95028.41;5074280;28;20292;-79
2022/09/08 04:34:37;;;;;;;13.20;8.87;;;;;;;15.64;95.21;95022.38;5074497;28;20209;-79
2022/09/08 04:37:06;;;;;;;16.90;9.13;;;;;;;15.68;94.76;95018.25;5073610;28;20213;-79
2022/09/08 04:39:34;;;;;;;23.37;9.37;;;;;;;15.70;94.71;95021.41;5073560;28;20447;-78
2022/09/08 04:42:01;;;;;;;19.90;9.00;;;;;;;15.75;94.25;95034.59;5073904;28;20205;-79
2022/09/08 04:44:28;;;;;;;15.00;9.50;;;;;;;15.84;93.69;95032.38;5073457;28;20616;-78
2022/09/08 04:46:55;;;;;;;17.23;9.40;;;;;;;15.79;93.61;95029.66;5073508;28;20205;-77
2022/09/08 04:49:22;;;;;;;18.20;9.80;;;;;;;15.79;93.21;95027.03;5066573;28;20198;-78
2022/09/08 04:51:50;;;;;;;16.47;9.17;;;;;;;15.81;93.30;95027.59;5067018;28;20258;-79
2022/09/08 04:54:18;;;;;;;19.63;9.37;;;;;;;15.80;93.96;95023.38;5073952;28;20233;-78
2022/09/08 04:56:45;;;;;;;18.20;9.50;;;;;;;15.81;94.58;95033.63;5073520;28;20694;-78
2022/09/08 04:59:11;;;;;;;24.80;9.47;;;;;;;15.85;94.99;95033.94;5067173;28;20262;-78
2022/09/08 05:01:38;;;;;;;18.00;8.93;;;;;;;15.88;94.63;95029.00;5073679;28;20212;-78
2022/09/08 05:04:05;;;;;;;14.53;9.47;;;;;;;15.87;94.30;95030.03;5073389;28;20202;-78
2022/09/08 05:06:34;;;;;;;12.27;8.93;;;;;;;15.83;94.38;95034.19;5073018;28;20314;-78
2022/09/08 05:09:02;;;;;;;17.13;9.23;;;;;;;15.86;93.88;95036.34;5072421;28;20555;-78
2022/09/08 05:11:32;;;;;;;13.37;9.27;;;;;;;15.93;93.24;95045.84;5012657;28;20213;-78
2022/09/08 05:13:59;;;;;;;13.37;8.43;;;;;;;15.95;90.72;95046.41;5063836;28;20278;-78
2022/09/08 05:16:27;;;;;;;11.93;9.07;;;;;;;15.89;91.36;95048.16;5069015;28;20556;-78
2022/09/08 05:18:57;;;;;;;12.00;9.33;;;;;;;15.89;91.76;95050.78;5066801;28;20212;-78
2022/09/08 05:21:24;;;;;;;17.67;9.30;;;;;;;15.85;92.60;95060.16;5064926;28;20213;-78
2022/09/08 05:23:52;;;;;;;14.10;9.23;;;;;;;15.74;93.12;95059.22;5069707;28;20205;-79
2022/09/08 05:26:20;;;;;;;15.33;8.83;;;;;;;15.75;93.20;95060.00;5064899;28;20569;-79
2022/09/08 05:28:49;;;;;;;14.50;9.47;;;;;;;15.85;93.32;95054.91;5068175;28;20607;-79
2022/09/08 05:31:19;;;;;;;15.67;9.40;;;;;;;15.96;93.05;95055.88;5068105;28;20621;-80
2022/09/08 05:33:46;;;;;;;12.73;9.20;;;;;;;15.99;91.55;95061.41;5067267;28;20219;-79
2022/09/08 05:36:15;;;;;;;9.73;8.40;;;;;;;15.98;92.23;95064.28;5068254;28;20258;-78
2022/09/08 05:38:43;;;;;;;22.03;9.57;;;;;;;16.04;91.51;95061.50;5067348;28;20599;-79
2022/09/08 05:41:10;;;;;;;15.07;9.27;;;;;;;16.04;91.60;95056.25;5067593;28;20301;-79
2022/09/08 05:43:37;;;;;;;16.37;8.83;;;;;;;16.07;91.34;95057.59;5068403;28;20660;-78
2022/09/08 05:46:06;;;;;;;14.73;9.63;;;;;;;16.08;91.39;95049.47;5071362;28;20228;-79
2022/09/08 05:48:33;;;;;;;16.83;10.00;;;;;;;16.13;91.41;95057.41;5069841;28;20573;-78
2022/09/08 05:51:02;;;;;;;18.00;9.63;;;;;;;16.27;89.93;95060.47;5068688;28;20189;-78
2022/09/08 05:53:29;;;;;;;17.20;9.10;;;;;;;16.26;89.83;95053.63;5065849;28;20213;-78
2022/09/08 05:55:58;;;;;;;20.83;9.30;;;;;;;16.32;90.13;95055.28;5067596;28;20579;-78
2022/09/08 05:58:25;;;;;;;15.17;9.03;;;;;;;16.33;90.03;95055.03;5070919;28;20654;-78
2022/09/08 06:00:56;;;;;;;15.23;9.77;;;;;;;16.41;89.88;95054.63;5066990;28;20209;-78
2022/09/08 06:03:26;;;;;;;16.33;9.50;;;;;;;16.49;90.17;95061.28;5070999;28;20197;-78
2022/09/08 06:05:53;;;;;;;13.13;9.77;;;;;;;16.54;90.47;95056.09;5067584;28;20217;-79
2022/09/08 06:08:21;;;;;;;20.53;10.10;;;;;;;16.59;90.27;95061.44;5068520;28;20233;-79
2022/09/08 06:10:52;;;;;;;17.40;10.20;;;;;;;16.61;90.19;95063.81;5067842;28;20225;-80
2022/09/08 06:13:21;;;;;;;16.77;10.47;;;;;;;16.68;89.56;95070.44;5064323;28;20201;-79
2022/09/08 06:15:48;;;;;;;13.67;9.17;;;;;;;16.75;89.13;95070.28;5068067;28;20323;-78
2022/09/08 06:18:15;;;;;;;18.93;10.10;;;;;;;16.75;89.22;95065.00;5068353;28;20217;-79
2022/09/08 06:20:44;;;;;;;14.97;9.90;;;;;;;16.79;89.12;95068.75;5067087;28;20193;-79
2022/09/08 06:23:11;;;;;;;20.37;10.00;;;;;;;16.92;87.00;95063.91;5067543;28;20272;-78
2022/09/08 06:25:42;;;;;;;15.97;10.00;;;;;;;16.92;86.02;95066.53;5067063;28;20283;-79
2022/09/08 06:28:22;;;;;;;14.33;9.30;;;;;;;16.98;87.00;95059.50;5066475;28;21368;-78
2022/09/08 06:30:51;;;;;;;18.40;9.70;;;;;;;17.07;86.50;95062.47;5065898;28;20205;-78
2022/09/08 06:33:28;;;;;;;17.97;10.10;;;;;;;17.08;85.09;95064.88;5064911;28;20207;-78
2022/09/08 06:36:03;;;;;;;17.33;9.90;;;;;;;17.06;85.55;95074.81;5066330;28;20200;-78
2022/09/08 06:38:37;;;;;;;67.93;12.57;;;;;;;17.13;86.23;95087.75;5067551;28;20219;-78
2022/09/08 06:41:12;;;;;;;35.63;10.30;;;;;;;17.14;85.99;95086.72;5066790;28;20204;-82
2022/09/08 06:43:42;;;;;;;16.93;9.53;;;;;;;17.06;85.66;95080.06;5070642;28;20200;-75
2022/09/08 06:46:18;;;;;;;14.87;9.37;;;;;;;17.18;85.02;95082.53;5066875;28;21087;-76
2022/09/08 06:48:45;;;;;;;13.90;9.20;;;;;;;17.27;84.75;95084.47;5066010;28;20209;-76
2022/09/08 06:51:26;;;;;;;23.33;9.80;;;;;;;17.28;84.59;95078.19;5066656;28;20699;-73
2022/09/08 06:54:03;;;;;;;13.20;9.30;;;;;;;17.43;82.81;95093.31;5065350;28;20595;-74
2022/09/08 06:56:44;;;;;;;17.23;8.23;;;;;;;17.40;82.53;95094.56;5066623;28;20193;-75
2022/09/08 06:59:25;;;;;;;14.93;8.73;;;;;;;17.56;83.35;95093.72;5066748;28;20321;-75
2022/09/08 07:02:03;;;;;;;12.57;8.07;;;;;;;17.70;82.16;95091.44;5067403;28;20235;-81
2022/09/08 07:04:40;;;;;;;11.93;8.53;;;;;;;17.81;81.75;95097.56;5064686;28;20212;-76
2022/09/08 07:07:24;;;;;;;14.07;8.67;;;;;;;17.96;81.51;95097.69;5065911;28;20214;-75
2022/09/08 07:10:00;;;;;;;13.97;8.40;;;;;;;18.07;81.50;95089.63;5066431;28;20216;-76
2022/09/08 07:12:46;;;;;;;12.30;7.20;;;;;;;18.25;85.66;95091.03;5066345;28;20205;-76
2022/09/08 07:15:36;;;;;;;11.55;7.65;;;;;;;18.44;81.93;95094.06;5066677;28;20209;-78
2022/09/08 07:18:13;;;;;;;11.80;7.53;;;;;;;18.58;80.36;95095.22;5064074;28;20298;-79
2022/09/08 07:20:39;;;;;;;15.32;7.68;;;;;;;18.68;79.47;95101.31;5066589;28;20666;-77
2022/09/08 07:23:12;;;;;;;14.00;7.13;;;;;;;18.82;77.28;95098.19;5071827;28;20204;-77
2022/09/08 07:25:43;;;;;;;13.30;7.03;;;;;;;18.96;74.66;95100.06;5070726;28;20200;-77
2022/09/08 07:28:13;;;;;;;16.85;7.00;;;;;;;19.01;73.00;95094.84;5071829;28;20862;-78
2022/09/08 07:30:41;;;;;;;11.77;7.18;;;;;;;19.07;73.84;95104.34;5068778;28;20653;-76
2022/09/08 07:33:19;;;;;;;10.13;7.22;;;;;;;19.21;74.01;95102.00;5066025;28;20216;-77
2022/09/08 07:35:55;;;;;;;13.52;7.32;;;;;;;19.36;72.83;95101.25;5066830;28;21447;-79
2022/09/08 07:38:32;;;;;;;17.02;7.47;;;;;;;19.46;72.90;95096.00;5062923;28;20197;-75
2022/09/08 07:40:59;;;;;;;15.30;6.65;;;;;;;19.62;72.03;95098.41;5065071;28;20695;-75
2022/09/08 07:43:27;;;;;;;18.45;7.20;;;;;;;19.74;71.93;95095.50;5066425;28;20212;-76
2022/09/08 07:46:02;;;;;;;13.98;6.97;;;;;;;19.83;71.77;95092.06;5066261;28;20225;-75
2022/09/08 07:48:35;;;;;;;12.88;6.45;;;;;;;20.00;70.96;95096.31;5066556;28;20204;-76
2022/09/08 07:51:14;;;;;;;14.88;7.07;;;;;;;20.10;71.39;95091.00;5063295;28;20209;-77
2022/09/08 07:53:55;;;;;;;15.27;7.47;;;;;;;20.25;70.96;95091.81;5066924;28;20194;-78
2022/09/08 07:56:31;;;;;;;18.38;6.85;;;;;;;20.40;70.72;95091.00;5070550;28;20228;-76
2022/09/08 07:59:16;;;;;;;10.68;7.05;;;;;;;20.55;69.34;95088.28;5066653;28;20197;-78
2022/09/08 08:01:58;;;;;;;13.63;7.18;;;;;;;20.68;67.75;95079.00;5064745;28;20200;-78
2022/09/08 08:04:42;;;;;;;16.20;6.65;;;;;;;20.75;66.55;95077.66;5069044;28;20205;-77
2022/09/08 08:07:14;;;;;;;12.35;6.88;;;;;;;20.72;66.92;95080.81;5068485;28;20217;-78
2022/09/08 08:09:53;;;;;;;10.75;5.97;;;;;;;20.74;67.79;95084.00;5067576;28;20202;-78
2022/09/08 08:12:30;;;;;;;14.98;5.90;;;;;;;20.79;67.36;95097.19;5067693;28;20259;-84
2022/09/08 08:15:01;;;;;;;12.68;6.40;;;;;;;20.77;67.54;95080.81;5068009;28;20211;-80
2022/09/08 08:17:36;;;;;;;7.97;6.15;;;;;;;20.93;67.14;95092.91;5063892;28;20237;-78
2022/09/08 08:20:20;;;;;;;12.77;6.72;;;;;;;21.11;66.05;95094.16;5065046;28;20208;-81
2022/09/08 08:23:05;;;;;;;12.52;7.03;;;;;;;21.22;64.55;95086.97;5050283;28;20595;-80
2022/09/08 08:25:42;;;;;;;11.87;6.90;;;;;;;21.39;64.17;95090.03;5057804;28;20278;-79
2022/09/08 08:28:14;;;;;;;12.00;6.68;;;;;;;21.49;63.91;95076.75;5062804;28;20205;-77
2022/09/08 08:30:49;;;;;;;12.57;6.32;;;;;;;21.73;62.96;95090.09;5064549;28;20236;-77
2022/09/08 08:33:18;;;;;;;9.40;6.53;;;;;;;21.83;61.87;95093.44;5065487;28;20209;-79
2022/09/08 08:35:49;;;;;;;11.52;6.65;;;;;;;21.81;61.59;95089.47;5066422;28;20287;-78
2022/09/08 08:38:20;;;;;;;12.77;6.95;;;;;;;21.71;62.26;95071.81;5064375;28;20213;-78
2022/09/08 08:40:57;;;;;;;10.63;6.95;;;;;;;21.81;62.73;95073.59;5062523;28;20213;-80
2022/09/08 08:44:00;;;;;;;10.57;6.53;;;;;;;21.94;63.15;95073.78;5064879;28;20259;-78
2022/09/08 08:46:57;;;;;;;11.13;6.18;;;;;;;22.13;62.42;95065.94;5061724;28;20688;-78
2022/09/08 08:49:45;;;;;;;14.20;6.90;;;;;;;22.20;62.04;95061.09;5064616;28;20209;-79
2022/09/08 08:52:33;;;;;;;12.32;6.38;;;;;;;22.21;63.18;95060.03;5063681;28;20205;-79
2022/09/08 08:55:18;;;;;;;9.30;6.47;;;;;;;22.30;63.49;95060.19;5067352;28;20208;-79
2022/09/08 08:58:00;;;;;;;11.50;7.20;;;;;;;22.41;63.01;95054.50;5070152;28;20205;-79
2022/09/08 09:00:37;;;;;;;11.93;7.50;;;;;;;22.41;63.30;95046.56;5068379;28;20212;-77
2022/09/08 09:03:46;;;;;;;17.80;7.15;;;;;;;22.45;62.80;95044.91;5068976;28;20203;-77
2022/09/08 09:06:32;;;;;;;11.60;7.78;;;;;;;22.49;61.57;95032.69;5047155;28;20224;-77
2022/09/08 09:09:32;;;;;;;12.63;6.80;;;;;;;22.52;61.28;95033.97;5066175;28;20233;-76
2022/09/08 09:12:21;;;;;;;12.63;6.78;;;;;;;22.56;60.45;95011.97;5043757;28;20212;-78
2022/09/08 09:15:27;;;;;;;11.40;7.03;;;;;;;22.63;59.28;95012.38;5069641;28;20201;-77
2022/09/08 09:18:17;;;;;;;9.65;6.50;;;;;;;22.75;59.21;95014.66;5067957;28;20725;-82
2022/09/08 09:21:00;;;;;;;18.60;6.55;;;;;;;22.88;58.73;95007.88;5067811;28;20697;-77
2022/09/08 09:23:42;;;;;;;12.95;6.38;;;;;;;23.03;58.90;95002.34;5067408;28;20213;-77
2022/09/08 09:26:18;;;;;;;9.05;7.10;;;;;;;23.26;59.48;95001.47;5067486;28;20710;-77
2022/09/08 09:28:56;;;;;;;8.15;6.15;;;;;;;23.57;58.60;94997.31;5067728;28;20208;-77
2022/09/08 09:32:05;;;;;;;9.98;6.75;;;;;;;23.85;57.42;94994.72;5067388;28;20213;-76
2022/09/08 09:35:01;;;;;;;12.65;6.10;;;;;;;24.12;56.80;94990.28;5068766;28;20225;-77
2022/09/08 09:38:00;;;;;;;15.75;6.85;;;;;;;24.49;56.12;94989.28;5067541;28;20229;-77
2022/09/08 09:40:40;;;;;;;8.27;5.82;;;;;;;24.77;54.54;94993.47;5064919;28;20220;-77
2022/09/08 09:43:28;;;;;;;11.38;6.15;;;;;;;24.97;51.81;94996.81;5068545;28;20201;-77
2022/09/08 09:46:16;;;;;;;12.63;6.22;;;;;;;25.06;51.86;94985.16;5067745;28;20233;-76
2022/09/08 09:49:12;;;;;;;9.35;6.53;;;;;;;25.30;52.27;94991.00;5067817;28;20702;-78
2022/09/08 09:51:52;;;;;;;10.27;6.13;;;;;;;25.60;52.24;94984.19;5066510;28;20217;-77
2022/09/08 09:54:42;;;;;;;10.32;5.70;;;;;;;25.93;52.00;94984.69;5064931;28;20220;-76
2022/09/08 09:57:49;;;;;;;10.48;5.88;;;;;;;26.28;50.84;94983.00;5065847;28;20202;-77
2022/09/08 10:00:19;;;;;;;10.95;5.80;;;;;;;26.56;48.46;94970.22;5068235;28;20212;-77
2022/09/08 10:03:17;;;;;;;7.45;5.68;;;;;;;26.74;47.48;94966.50;5067920;28;20780;-76
2022/09/08 10:06:11;;;;;;;7.70;5.72;;;;;;;26.97;47.41;94960.75;5068262;28;20205;-77
2022/09/08 10:09:18;;;;;;;12.32;6.30;;;;;;;27.37;47.01;94963.25;5067574;28;20197;-77
2022/09/08 10:12:30;;;;;;;13.80;6.25;;;;;;;27.69;46.30;94953.94;5067883;28;20205;-77
2022/09/08 10:15:23;;;;;;;9.75;5.43;;;;;;;28.02;44.77;94946.94;5045027;28;20642;-76
2022/09/08 10:18:26;;;;;;;9.73;5.60;;;;;;;28.34;44.71;94953.63;5066232;28;20193;-77
2022/09/08 10:21:38;;;;;;;13.02;6.75;;;;;;;28.63;45.25;94951.72;5064832;28;20208;-76
2022/09/08 10:24:52;;;;;;;14.93;5.85;;;;;;;28.94;43.53;94943.34;5062024;28;20208;-77
2022/09/08 10:27:51;;;;;;;12.07;5.80;;;;;;;28.85;43.65;94934.59;5018695;28;20233;-76
2022/09/08 10:30:48;;;;;;;10.98;6.97;;;;;;;29.09;44.04;94926.69;5066587;28;20212;-76
2022/09/08 10:33:43;;;;;;;30.38;14.95;;;;;;;29.44;42.96;94937.16;5064486;28;22062;-76
2022/09/08 10:36:12;;;;;;;13.20;8.50;;;;;;;29.64;42.64;94930.97;5067089;28;20198;-77
2022/09/08 10:38:57;;;;;;;9.98;6.00;;;;;;;29.61;41.75;94926.25;5066780;28;20300;-77
2022/09/08 10:42:08;;;;;;;13.48;6.35;;;;;;;29.92;40.88;94931.94;5066338;28;20215;-77
2022/09/08 10:44:50;;;;;;;10.75;5.97;;;;;;;30.14;41.18;94920.00;5066614;28;20357;-76
2022/09/08 10:48:06;;;;;;;11.30;5.72;;;;;;;29.53;41.96;94929.78;5066480;28;21278;-76
2022/09/08 10:50:35;;;;;;;11.02;5.85;;;;;;;29.98;40.90;94929.81;5067197;28;20204;-77
2022/09/08 10:53:33;;;;;;;9.95;5.03;;;;;;;30.27;40.97;94922.31;5066283;28;20672;-77
2022/09/08 10:56:13;;;;;;;6.32;5.53;;;;;;;30.61;40.91;94920.34;5064329;28;20224;-76
2022/09/08 10:59:13;;;;;;;8.20;5.70;;;;;;;30.63;40.03;94920.78;5066793;28;20213;-77
2022/09/08 11:02:07;;;;;;;7.45;5.70;;;;;;;30.98;39.37;94910.31;5066805;28;20209;-77
2022/09/08 11:05:08;;;;;;;12.05;5.90;;;;;;;30.95;37.81;94927.13;5064631;28;20247;-77
2022/09/08 11:08:09;;;;;;;11.55;6.13;;;;;;;31.12;38.43;94906.13;5062101;28;20225;-77
2022/09/08 11:10:54;;;;;;;9.57;5.60;;;;;;;31.49;38.32;94906.78;5064150;28;20200;-77
2022/09/08 11:13:33;;;;;;;11.52;5.50;;;;;;;31.63;38.09;94899.09;5066609;28;20209;-77
2022/09/08 11:16:32;;;;;;;12.35;5.80;;;;;;;31.56;38.35;94906.19;5063341;28;20233;-77
2022/09/08 11:19:35;;;;;;;7.50;5.85;;;;;;;31.75;37.92;94906.31;5065943;28;20283;-76
2022/09/08 11:22:27;;;;;;;7.88;5.72;;;;;;;31.48;37.23;94899.09;5063627;28;20580;-77
2022/09/08 11:25:13;;;;;;;6.78;5.70;;;;;;;30.98;38.20;94900.38;5061437;28;20209;-77
2022/09/08 11:27:48;;;;;;;8.38;5.75;;;;;;;31.16;38.44;94893.59;5065445;28;20320;-77
2022/09/08 11:30:21;;;;;;;9.40;5.68;;;;;;;31.65;39.26;94896.88;5066128;28;20212;-77
2022/09/08 11:33:01;;;;;;;12.13;5.82;;;;;;;31.99;37.40;94904.25;5064660;28;20197;-77
2022/09/08 11:35:58;;;;;;;8.68;5.97;;;;;;;32.37;36.13;94913.63;5066289;28;20785;-76
2022/09/08 11:38:56;;;;;;;8.70;5.68;;;;;;;32.80;35.88;94900.03;5065750;28;20209;-77
2022/09/08 11:41:53;;;;;;;13.38;6.20;;;;;;;33.28;34.29;94912.19;5065654;28;20209;-76
2022/09/08 11:44:49;;;;;;;10.68;5.40;;;;;;;33.62;33.85;94915.97;5065842;28;20208;-77
2022/09/08 11:47:46;;;;;;;10.00;5.75;;;;;;;33.87;34.49;94919.88;5056312;28;20830;-76
2022/09/08 11:50:32;;;;;;;10.07;5.80;;;;;;;33.76;32.78;94912.75;5065023;28;20627;-76
2022/09/08 11:53:29;;;;;;;8.75;5.70;;;;;;;33.88;33.99;94913.38;5066136;28;20201;-76
2022/09/08 11:56:20;;;;;;;6.90;5.57;;;;;;;34.17;33.47;94912.69;5063081;28;20193;-76
2022/09/08 11:59:09;;;;;;;8.48;5.22;;;;;;;34.31;33.36;94917.56;5067283;28;20202;-77
2022/09/08 12:01:45;;;;;;;8.32;5.97;;;;;;;34.53;32.38;94916.75;5064239;28;20270;-77
2022/09/08 12:04:26;;;;;;;8.85;5.53;;;;;;;34.61;32.06;94912.25;5065982;28;20204;-77
2022/09/08 12:07:20;;;;;;;7.22;5.80;;;;;;;34.53;32.88;94911.34;5064304;28;20293;-76
2022/09/08 12:10:07;;;;;;;6.57;5.10;;;;;;;34.53;32.29;94907.84;5065842;28;20193;-76